sensor_id;sensor_type;location;lat;lon;timestamp;P1;durP1;ratioP1;P2;durP2;ratioP2
68951;SDS011;56000;51.146;17.112;2023-04-15T00:00:30;10.40;;;7.90;;
68951;SDS011;56000;51.146;17.112;2023-04-15T00:03:16;14.90;;;8.70;;
68951;SDS011;56000;51.146;17.112;2023-04-15T00:05:50;12.30;;;8.70;;
68951;SDS011;56000;51.146;17.112;2023-04-15T00:08:23;14.60;;;8.80;;
68951;SDS011;56000;51.146;17.112;2023-04-15T00:10:56;12.20;;;8.30;;
68951;SDS011;56000;51.146;17.112;2023-04-15T00:13:32;13.10;;;8.10;;
68951;SDS011;56000;51.146;17.112;2023-04-15T00:16:05;13.00;;;7.20;;
68951;SDS011;56000;51.146;17.112;2023-04-15T00:18:39;14.40;;;7.40;;
68951;SDS011;56000;51.146;17.112;2023-04-15T00:21:12;11.90;;;7.30;;
68951;SDS011;56000;51.146;17.112;2023-04-15T00:23:45;13.60;;;7.70;;
68951;SDS011;56000;51.146;17.112;2023-04-15T00:26:22;12.50;;;8.40;;
68951;SDS011;56000;51.146;17.112;2023-04-15T00:28:55;15.60;;;8.40;;
68951;SDS011;56000;51.146;17.112;2023-04-15T00:31:30;11.30;;;8.00;;
68951;SDS011;56000;51.146;17.112;2023-04-15T00:34:03;10.70;;;7.80;;
68951;SDS011;56000;51.146;17.112;2023-04-15T00:36:36;14.00;;;8.50;;
68951;SDS011;56000;51.146;17.112;2023-04-15T00:39:10;13.70;;;8.50;;
68951;SDS011;56000;51.146;17.112;2023-04-15T00:41:44;10.40;;;7.40;;
68951;SDS011;56000;51.146;17.112;2023-04-15T00:44:18;15.00;;;9.10;;
68951;SDS011;56000;51.146;17.112;2023-04-15T00:46:51;14.30;;;7.60;;
68951;SDS011;56000;51.146;17.112;2023-04-15T00:49:24;11.60;;;8.70;;
68951;SDS011;56000;51.146;17.112;2023-04-15T00:51:58;11.80;;;7.40;;
68951;SDS011;56000;51.146;17.112;2023-04-15T00:54:32;14.20;;;7.70;;
68951;SDS011;56000;51.146;17.112;2023-04-15T00:57:07;11.30;;;7.30;;
68951;SDS011;56000;51.146;17.112;2023-04-15T00:59:40;12.20;;;8.00;;
68951;SDS011;56000;51.146;17.112;2023-04-15T01:02:13;12.90;;;7.60;;
68951;SDS011;56000;51.146;17.112;2023-04-15T01:04:46;14.10;;;9.30;;
68951;SDS011;56000;51.146;17.112;2023-04-15T01:07:20;9.90;;;6.80;;
68951;SDS011;56000;51.146;17.112;2023-04-15T01:09:53;16.00;;;8.40;;
68951;SDS011;56000;51.146;17.112;2023-04-15T01:12:27;13.20;;;7.80;;
68951;SDS011;56000;51.146;17.112;2023-04-15T01:15:03;13.80;;;7.60;;
68951;SDS011;56000;51.146;17.112;2023-04-15T01:17:37;16.60;;;7.20;;
68951;SDS011;56000;51.146;17.112;2023-04-15T01:20:11;15.10;;;8.30;;
68951;SDS011;56000;51.146;17.112;2023-04-15T01:22:45;13.40;;;7.60;;
68951;SDS011;56000;51.146;17.112;2023-04-15T01:27:58;9.60;;;6.90;;
68951;SDS011;56000;51.146;17.112;2023-04-15T01:30:35;14.30;;;8.10;;
68951;SDS011;56000;51.146;17.112;2023-04-15T01:33:09;15.70;;;8.40;;
68951;SDS011;56000;51.146;17.112;2023-04-15T01:35:42;11.30;;;6.70;;
68951;SDS011;56000;51.146;17.112;2023-04-15T01:38:15;15.40;;;8.50;;
68951;SDS011;56000;51.146;17.112;2023-04-15T01:40:48;11.80;;;7.50;;
68951;SDS011;56000;51.146;17.112;2023-04-15T01:43:21;14.40;;;8.00;;
68951;SDS011;56000;51.146;17.112;2023-04-15T01:45:54;12.40;;;6.70;;
68951;SDS011;56000;51.146;17.112;2023-04-15T01:48:27;12.30;;;7.60;;
68951;SDS011;56000;51.146;17.112;2023-04-15T01:51:00;11.50;;;7.70;;
68951;SDS011;56000;51.146;17.112;2023-04-15T01:53:33;10.60;;;7.70;;
68951;SDS011;56000;51.146;17.112;2023-04-15T01:56:06;15.00;;;8.20;;
68951;SDS011;56000;51.146;17.112;2023-04-15T01:58:39;10.40;;;5.90;;
68951;SDS011;56000;51.146;17.112;2023-04-15T02:01:12;13.10;;;7.10;;
68951;SDS011;56000;51.146;17.112;2023-04-15T02:03:45;9.70;;;6.30;;
68951;SDS011;56000;51.146;17.112;2023-04-15T02:06:19;12.10;;;7.70;;
68951;SDS011;56000;51.146;17.112;2023-04-15T02:08:52;11.50;;;5.80;;
68951;SDS011;56000;51.146;17.112;2023-04-15T02:11:25;14.80;;;7.90;;
68951;SDS011;56000;51.146;17.112;2023-04-15T02:13:58;12.10;;;7.00;;
68951;SDS011;56000;51.146;17.112;2023-04-15T02:16:31;9.50;;;6.90;;
68951;SDS011;56000;51.146;17.112;2023-04-15T02:19:05;9.70;;;5.90;;
68951;SDS011;56000;51.146;17.112;2023-04-15T02:21:39;11.70;;;7.30;;
68951;SDS011;56000;51.146;17.112;2023-04-15T02:24:12;15.50;;;8.20;;
68951;SDS011;56000;51.146;17.112;2023-04-15T02:26:45;10.60;;;7.80;;
68951;SDS011;56000;51.146;17.112;2023-04-15T02:29:18;11.80;;;7.80;;
68951;SDS011;56000;51.146;17.112;2023-04-15T02:31:51;14.20;;;8.40;;
68951;SDS011;56000;51.146;17.112;2023-04-15T02:34:25;15.30;;;8.00;;
68951;SDS011;56000;51.146;17.112;2023-04-15T02:36:59;13.50;;;8.10;;
68951;SDS011;56000;51.146;17.112;2023-04-15T02:39:32;13.30;;;8.30;;
68951;SDS011;56000;51.146;17.112;2023-04-15T02:42:05;11.60;;;7.90;;
68951;SDS011;56000;51.146;17.112;2023-04-15T02:44:38;13.50;;;8.40;;
68951;SDS011;56000;51.146;17.112;2023-04-15T02:47:12;14.50;;;9.40;;
68951;SDS011;56000;51.146;17.112;2023-04-15T02:49:45;16.40;;;9.80;;
68951;SDS011;56000;51.146;17.112;2023-04-15T02:52:18;11.50;;;8.40;;
68951;SDS011;56000;51.146;17.112;2023-04-15T02:54:51;16.40;;;8.90;;
68951;SDS011;56000;51.146;17.112;2023-04-15T02:57:27;15.00;;;8.90;;
68951;SDS011;56000;51.146;17.112;2023-04-15T03:00:03;12.90;;;8.50;;
68951;SDS011;56000;51.146;17.112;2023-04-15T03:02:43;14.20;;;8.00;;
68951;SDS011;56000;51.146;17.112;2023-04-15T03:05:17;13.10;;;8.50;;
68951;SDS011;56000;51.146;17.112;2023-04-15T03:07:52;13.20;;;8.20;;
68951;SDS011;56000;51.146;17.112;2023-04-15T03:10:25;13.70;;;8.60;;
68951;SDS011;56000;51.146;17.112;2023-04-15T03:12:58;15.60;;;9.00;;
68951;SDS011;56000;51.146;17.112;2023-04-15T03:15:33;15.40;;;9.30;;
68951;SDS011;56000;51.146;17.112;2023-04-15T03:18:06;16.40;;;9.40;;
68951;SDS011;56000;51.146;17.112;2023-04-15T03:20:42;12.80;;;8.80;;
68951;SDS011;56000;51.146;17.112;2023-04-15T03:23:15;14.40;;;8.70;;
68951;SDS011;56000;51.146;17.112;2023-04-15T03:25:49;13.40;;;8.40;;
68951;SDS011;56000;51.146;17.112;2023-04-15T03:28:25;15.80;;;8.30;;
68951;SDS011;56000;51.146;17.112;2023-04-15T03:31:00;15.10;;;8.20;;
68951;SDS011;56000;51.146;17.112;2023-04-15T03:33:33;12.40;;;8.20;;
68951;SDS011;56000;51.146;17.112;2023-04-15T03:36:07;13.30;;;8.70;;
68951;SDS011;56000;51.146;17.112;2023-04-15T03:38:40;12.80;;;8.00;;
68951;SDS011;56000;51.146;17.112;2023-04-15T03:41:13;13.60;;;8.60;;
68951;SDS011;56000;51.146;17.112;2023-04-15T03:43:46;12.30;;;8.10;;
68951;SDS011;56000;51.146;17.112;2023-04-15T03:46:20;12.10;;;7.90;;
68951;SDS011;56000;51.146;17.112;2023-04-15T03:48:54;12.00;;;7.90;;
68951;SDS011;56000;51.146;17.112;2023-04-15T03:51:26;16.80;;;8.50;;
68951;SDS011;56000;51.146;17.112;2023-04-15T03:54:00;13.60;;;8.20;;
68951;SDS011;56000;51.146;17.112;2023-04-15T03:56:33;10.60;;;7.30;;
68951;SDS011;56000;51.146;17.112;2023-04-15T03:59:06;12.80;;;8.30;;
68951;SDS011;56000;51.146;17.112;2023-04-15T04:01:38;11.40;;;7.90;;
68951;SDS011;56000;51.146;17.112;2023-04-15T04:04:12;13.50;;;7.70;;
68951;SDS011;56000;51.146;17.112;2023-04-15T04:06:45;12.50;;;8.00;;
68951;SDS011;56000;51.146;17.112;2023-04-15T04:09:18;11.20;;;7.00;;
68951;SDS011;56000;51.146;17.112;2023-04-15T04:11:51;9.30;;;6.50;;
68951;SDS011;56000;51.146;17.112;2023-04-15T04:14:24;9.60;;;6.00;;
68951;SDS011;56000;51.146;17.112;2023-04-15T04:16:58;8.40;;;5.20;;
68951;SDS011;56000;51.146;17.112;2023-04-15T04:19:31;12.00;;;4.80;;
68951;SDS011;56000;51.146;17.112;2023-04-15T04:22:04;6.70;;;4.00;;
68951;SDS011;56000;51.146;17.112;2023-04-15T04:24:37;4.60;;;3.70;;
68951;SDS011;56000;51.146;17.112;2023-04-15T04:27:10;8.60;;;3.70;;
68951;SDS011;56000;51.146;17.112;2023-04-15T04:29:43;3.40;;;2.80;;
68951;SDS011;56000;51.146;17.112;2023-04-15T04:32:18;3.90;;;3.00;;
68951;SDS011;56000;51.146;17.112;2023-04-15T04:34:51;4.10;;;3.20;;
68951;SDS011;56000;51.146;17.112;2023-04-15T04:37:24;3.20;;;2.90;;
68951;SDS011;56000;51.146;17.112;2023-04-15T04:39:57;3.70;;;2.70;;
68951;SDS011;56000;51.146;17.112;2023-04-15T04:42:30;3.40;;;2.60;;
68951;SDS011;56000;51.146;17.112;2023-04-15T04:45:07;3.10;;;2.30;;
68951;SDS011;56000;51.146;17.112;2023-04-15T04:47:41;2.50;;;2.10;;
68951;SDS011;56000;51.146;17.112;2023-04-15T04:50:14;4.90;;;2.70;;
68951;SDS011;56000;51.146;17.112;2023-04-15T04:52:47;2.10;;;1.90;;
68951;SDS011;56000;51.146;17.112;2023-04-15T04:55:20;1.90;;;1.80;;
68951;SDS011;56000;51.146;17.112;2023-04-15T04:57:53;2.20;;;2.00;;
68951;SDS011;56000;51.146;17.112;2023-04-15T05:00:26;2.80;;;2.00;;
68951;SDS011;56000;51.146;17.112;2023-04-15T05:02:59;2.60;;;1.90;;
68951;SDS011;56000;51.146;17.112;2023-04-15T05:05:32;4.50;;;2.50;;
68951;SDS011;56000;51.146;17.112;2023-04-15T05:08:06;3.00;;;2.10;;
68951;SDS011;56000;51.146;17.112;2023-04-15T05:10:39;8.90;;;5.40;;
68951;SDS011;56000;51.146;17.112;2023-04-15T05:13:12;3.00;;;2.30;;
68951;SDS011;56000;51.146;17.112;2023-04-15T05:15:45;3.50;;;2.10;;
68951;SDS011;56000;51.146;17.112;2023-04-15T05:18:18;2.80;;;2.30;;
68951;SDS011;56000;51.146;17.112;2023-04-15T05:20:51;4.50;;;2.40;;
68951;SDS011;56000;51.146;17.112;2023-04-15T05:23:24;4.40;;;2.40;;
68951;SDS011;56000;51.146;17.112;2023-04-15T05:25:57;3.70;;;2.70;;
68951;SDS011;56000;51.146;17.112;2023-04-15T05:28:30;2.60;;;2.30;;
68951;SDS011;56000;51.146;17.112;2023-04-15T05:31:03;3.90;;;2.80;;
68951;SDS011;56000;51.146;17.112;2023-04-15T05:33:37;4.20;;;2.90;;
68951;SDS011;56000;51.146;17.112;2023-04-15T05:36:10;2.80;;;2.10;;
68951;SDS011;56000;51.146;17.112;2023-04-15T05:38:43;3.70;;;2.50;;
68951;SDS011;56000;51.146;17.112;2023-04-15T05:41:16;3.60;;;2.10;;
68951;SDS011;56000;51.146;17.112;2023-04-15T05:43:49;5.20;;;2.50;;
68951;SDS011;56000;51.146;17.112;2023-04-15T05:46:22;10.20;;;2.40;;
68951;SDS011;56000;51.146;17.112;2023-04-15T05:48:56;2.20;;;2.00;;
68951;SDS011;56000;51.146;17.112;2023-04-15T05:51:29;2.90;;;1.90;;
68951;SDS011;56000;51.146;17.112;2023-04-15T05:54:02;5.80;;;2.20;;
68951;SDS011;56000;51.146;17.112;2023-04-15T05:56:35;3.70;;;3.00;;
68951;SDS011;56000;51.146;17.112;2023-04-15T05:59:08;4.00;;;2.50;;
68951;SDS011;56000;51.146;17.112;2023-04-15T06:01:41;3.00;;;2.50;;
68951;SDS011;56000;51.146;17.112;2023-04-15T06:04:15;3.70;;;2.50;;
68951;SDS011;56000;51.146;17.112;2023-04-15T06:06:48;3.10;;;2.20;;
68951;SDS011;56000;51.146;17.112;2023-04-15T06:09:21;2.50;;;2.00;;
68951;SDS011;56000;51.146;17.112;2023-04-15T06:11:54;2.30;;;2.10;;
68951;SDS011;56000;51.146;17.112;2023-04-15T06:14:27;2.40;;;2.20;;
68951;SDS011;56000;51.146;17.112;2023-04-15T06:17:00;3.00;;;2.20;;
68951;SDS011;56000;51.146;17.112;2023-04-15T06:19:33;3.50;;;2.50;;
68951;SDS011;56000;51.146;17.112;2023-04-15T06:22:06;2.70;;;2.30;;
68951;SDS011;56000;51.146;17.112;2023-04-15T06:24:40;2.40;;;2.00;;
68951;SDS011;56000;51.146;17.112;2023-04-15T06:27:13;2.60;;;2.20;;
68951;SDS011;56000;51.146;17.112;2023-04-15T06:29:45;4.30;;;2.70;;
68951;SDS011;56000;51.146;17.112;2023-04-15T06:32:18;3.40;;;2.50;;
68951;SDS011;56000;51.146;17.112;2023-04-15T06:34:52;3.10;;;2.60;;
68951;SDS011;56000;51.146;17.112;2023-04-15T06:37:25;5.80;;;3.00;;
68951;SDS011;56000;51.146;17.112;2023-04-15T06:39:58;5.10;;;3.80;;
68951;SDS011;56000;51.146;17.112;2023-04-15T06:42:31;6.90;;;4.30;;
68951;SDS011;56000;51.146;17.112;2023-04-15T06:45:07;3.40;;;2.40;;
68951;SDS011;56000;51.146;17.112;2023-04-15T06:47:41;3.10;;;2.50;;
68951;SDS011;56000;51.146;17.112;2023-04-15T06:50:14;4.70;;;3.30;;
68951;SDS011;56000;51.146;17.112;2023-04-15T06:52:47;7.30;;;4.30;;
68951;SDS011;56000;51.146;17.112;2023-04-15T06:55:21;8.50;;;5.00;;
68951;SDS011;56000;51.146;17.112;2023-04-15T06:57:54;2.30;;;1.70;;
68951;SDS011;56000;51.146;17.112;2023-04-15T07:00:27;4.40;;;1.70;;
68951;SDS011;56000;51.146;17.112;2023-04-15T07:05:01;1.70;;;1.60;;
68951;SDS011;56000;51.146;17.112;2023-04-15T07:07:34;2.10;;;1.90;;
68951;SDS011;56000;51.146;17.112;2023-04-15T07:10:09;1.70;;;1.50;;
68951;SDS011;56000;51.146;17.112;2023-04-15T07:12:43;2.30;;;1.70;;
68951;SDS011;56000;51.146;17.112;2023-04-15T07:15:18;3.60;;;1.90;;
68951;SDS011;56000;51.146;17.112;2023-04-15T07:17:51;4.10;;;2.70;;
68951;SDS011;56000;51.146;17.112;2023-04-15T07:20:25;2.80;;;2.20;;
68951;SDS011;56000;51.146;17.112;2023-04-15T07:22:58;2.60;;;1.90;;
68951;SDS011;56000;51.146;17.112;2023-04-15T07:25:31;2.70;;;1.90;;
68951;SDS011;56000;51.146;17.112;2023-04-15T07:28:04;13.70;;;10.00;;
68951;SDS011;56000;51.146;17.112;2023-04-15T07:30:38;4.80;;;3.30;;
68951;SDS011;56000;51.146;17.112;2023-04-15T07:33:11;3.50;;;2.00;;
68951;SDS011;56000;51.146;17.112;2023-04-15T07:35:44;2.30;;;1.80;;
68951;SDS011;56000;51.146;17.112;2023-04-15T07:38:18;2.20;;;1.80;;
68951;SDS011;56000;51.146;17.112;2023-04-15T07:40:51;1.70;;;1.60;;
68951;SDS011;56000;51.146;17.112;2023-04-15T07:43:24;2.20;;;1.60;;
68951;SDS011;56000;51.146;17.112;2023-04-15T07:45:57;1.90;;;1.70;;
68951;SDS011;56000;51.146;17.112;2023-04-15T07:48:31;2.40;;;1.50;;
68951;SDS011;56000;51.146;17.112;2023-04-15T07:51:06;1.50;;;1.30;;
68951;SDS011;56000;51.146;17.112;2023-04-15T07:53:39;1.90;;;1.50;;
68951;SDS011;56000;51.146;17.112;2023-04-15T07:56:13;1.50;;;1.00;;
68951;SDS011;56000;51.146;17.112;2023-04-15T07:58:46;2.70;;;0.90;;
68951;SDS011;56000;51.146;17.112;2023-04-15T08:01:19;2.80;;;1.20;;
68951;SDS011;56000;51.146;17.112;2023-04-15T08:03:52;1.70;;;1.30;;
68951;SDS011;56000;51.146;17.112;2023-04-15T08:06:26;2.20;;;1.20;;
68951;SDS011;56000;51.146;17.112;2023-04-15T08:08:59;1.10;;;1.00;;
68951;SDS011;56000;51.146;17.112;2023-04-15T08:11:33;2.00;;;1.10;;
68951;SDS011;56000;51.146;17.112;2023-04-15T08:14:07;1.20;;;1.10;;
68951;SDS011;56000;51.146;17.112;2023-04-15T08:16:40;1.20;;;1.10;;
68951;SDS011;56000;51.146;17.112;2023-04-15T08:19:13;1.20;;;1.10;;
68951;SDS011;56000;51.146;17.112;2023-04-15T08:21:46;1.10;;;1.00;;
68951;SDS011;56000;51.146;17.112;2023-04-15T08:24:20;2.40;;;1.20;;
68951;SDS011;56000;51.146;17.112;2023-04-15T08:26:53;1.60;;;1.20;;
68951;SDS011;56000;51.146;17.112;2023-04-15T08:29:26;3.40;;;1.60;;
68951;SDS011;56000;51.146;17.112;2023-04-15T08:31:59;1.90;;;1.60;;
68951;SDS011;56000;51.146;17.112;2023-04-15T08:34:33;5.00;;;2.30;;
68951;SDS011;56000;51.146;17.112;2023-04-15T08:37:06;6.10;;;1.90;;
68951;SDS011;56000;51.146;17.112;2023-04-15T08:39:41;1.70;;;1.30;;
68951;SDS011;56000;51.146;17.112;2023-04-15T08:42:18;3.50;;;2.70;;
68951;SDS011;56000;51.146;17.112;2023-04-15T08:44:58;1.40;;;1.30;;
68951;SDS011;56000;51.146;17.112;2023-04-15T08:47:34;4.40;;;2.30;;
68951;SDS011;56000;51.146;17.112;2023-04-15T08:50:10;2.10;;;1.90;;
68951;SDS011;56000;51.146;17.112;2023-04-15T08:52:44;1.90;;;1.70;;
68951;SDS011;56000;51.146;17.112;2023-04-15T08:55:18;1.70;;;1.40;;
68951;SDS011;56000;51.146;17.112;2023-04-15T08:57:52;1.90;;;1.70;;
68951;SDS011;56000;51.146;17.112;2023-04-15T09:00:29;17.60;;;7.00;;
68951;SDS011;56000;51.146;17.112;2023-04-15T09:03:03;2.10;;;1.30;;
68951;SDS011;56000;51.146;17.112;2023-04-15T09:05:37;1.20;;;1.10;;
68951;SDS011;56000;51.146;17.112;2023-04-15T09:08:10;7.70;;;3.50;;
68951;SDS011;56000;51.146;17.112;2023-04-15T09:10:43;4.10;;;2.00;;
68951;SDS011;56000;51.146;17.112;2023-04-15T09:13:17;2.50;;;1.00;;
68951;SDS011;56000;51.146;17.112;2023-04-15T09:15:50;1.00;;;1.00;;
68951;SDS011;56000;51.146;17.112;2023-04-15T09:18:31;1.50;;;1.40;;
68951;SDS011;56000;51.146;17.112;2023-04-15T09:21:08;2.70;;;1.20;;
68951;SDS011;56000;51.146;17.112;2023-04-15T09:23:55;2.50;;;1.50;;
68951;SDS011;56000;51.146;17.112;2023-04-15T09:26:35;1.30;;;1.20;;
68951;SDS011;56000;51.146;17.112;2023-04-15T09:29:10;7.30;;;2.80;;
68951;SDS011;56000;51.146;17.112;2023-04-15T09:31:43;4.10;;;2.90;;
68951;SDS011;56000;51.146;17.112;2023-04-15T09:34:16;2.90;;;2.30;;
68951;SDS011;56000;51.146;17.112;2023-04-15T09:36:58;1.40;;;1.30;;
68951;SDS011;56000;51.146;17.112;2023-04-15T09:39:47;1.10;;;1.10;;
68951;SDS011;56000;51.146;17.112;2023-04-15T09:42:21;1.10;;;1.00;;
68951;SDS011;56000;51.146;17.112;2023-04-15T09:44:55;6.60;;;2.50;;
68951;SDS011;56000;51.146;17.112;2023-04-15T09:47:40;6.30;;;2.50;;
68951;SDS011;56000;51.146;17.112;2023-04-15T09:50:15;3.40;;;1.90;;
68951;SDS011;56000;51.146;17.112;2023-04-15T09:52:49;3.10;;;1.30;;
68951;SDS011;56000;51.146;17.112;2023-04-15T09:55:22;5.50;;;2.80;;
68951;SDS011;56000;51.146;17.112;2023-04-15T09:57:55;1.40;;;1.30;;
68951;SDS011;56000;51.146;17.112;2023-04-15T10:00:28;1.50;;;1.00;;
68951;SDS011;56000;51.146;17.112;2023-04-15T10:03:03;2.90;;;1.20;;
68951;SDS011;56000;51.146;17.112;2023-04-15T10:05:37;3.10;;;1.20;;
68951;SDS011;56000;51.146;17.112;2023-04-15T10:08:11;1.70;;;1.10;;
68951;SDS011;56000;51.146;17.112;2023-04-15T10:10:45;1.20;;;1.00;;
68951;SDS011;56000;51.146;17.112;2023-04-15T10:13:22;0.90;;;0.90;;
68951;SDS011;56000;51.146;17.112;2023-04-15T10:15:59;1.60;;;1.30;;
68951;SDS011;56000;51.146;17.112;2023-04-15T10:18:37;2.10;;;1.40;;
68951;SDS011;56000;51.146;17.112;2023-04-15T10:21:13;4.10;;;1.40;;
68951;SDS011;56000;51.146;17.112;2023-04-15T10:23:48;1.00;;;0.90;;
68951;SDS011;56000;51.146;17.112;2023-04-15T10:26:21;1.50;;;1.30;;
68951;SDS011;56000;51.146;17.112;2023-04-15T10:28:55;3.00;;;1.60;;
68951;SDS011;56000;51.146;17.112;2023-04-15T10:31:29;2.20;;;1.10;;
68951;SDS011;56000;51.146;17.112;2023-04-15T10:34:02;1.00;;;1.00;;
68951;SDS011;56000;51.146;17.112;2023-04-15T10:36:36;1.30;;;1.20;;
68951;SDS011;56000;51.146;17.112;2023-04-15T10:42:16;1.20;;;1.10;;
68951;SDS011;56000;51.146;17.112;2023-04-15T10:44:51;2.00;;;1.70;;
68951;SDS011;56000;51.146;17.112;2023-04-15T10:47:28;2.90;;;1.60;;
68951;SDS011;56000;51.146;17.112;2023-04-15T10:50:02;1.20;;;1.00;;
68951;SDS011;56000;51.146;17.112;2023-04-15T10:52:40;1.20;;;1.20;;
68951;SDS011;56000;51.146;17.112;2023-04-15T10:55:18;1.10;;;1.00;;
68951;SDS011;56000;51.146;17.112;2023-04-15T10:57:54;8.20;;;5.40;;
68951;SDS011;56000;51.146;17.112;2023-04-15T11:00:31;6.50;;;2.80;;
68951;SDS011;56000;51.146;17.112;2023-04-15T11:03:09;3.10;;;1.60;;
68951;SDS011;56000;51.146;17.112;2023-04-15T11:05:52;1.10;;;1.00;;
68951;SDS011;56000;51.146;17.112;2023-04-15T11:08:54;0.80;;;0.80;;
68951;SDS011;56000;51.146;17.112;2023-04-15T11:12:06;2.00;;;1.70;;
68951;SDS011;56000;51.146;17.112;2023-04-15T11:14:41;1.00;;;1.00;;
68951;SDS011;56000;51.146;17.112;2023-04-15T11:17:23;0.80;;;0.80;;
68951;SDS011;56000;51.146;17.112;2023-04-15T11:19:59;1.30;;;1.20;;
68951;SDS011;56000;51.146;17.112;2023-04-15T11:22:33;2.00;;;1.80;;
68951;SDS011;56000;51.146;17.112;2023-04-15T11:25:07;1.50;;;1.40;;
68951;SDS011;56000;51.146;17.112;2023-04-15T11:27:40;1.40;;;1.30;;
68951;SDS011;56000;51.146;17.112;2023-04-15T11:30:21;1.70;;;1.40;;
68951;SDS011;56000;51.146;17.112;2023-04-15T11:32:59;2.80;;;1.90;;
68951;SDS011;56000;51.146;17.112;2023-04-15T11:35:33;1.40;;;1.30;;
68951;SDS011;56000;51.146;17.112;2023-04-15T11:38:10;0.80;;;0.80;;
68951;SDS011;56000;51.146;17.112;2023-04-15T11:40:44;0.90;;;0.90;;
68951;SDS011;56000;51.146;17.112;2023-04-15T11:43:18;0.80;;;0.80;;
68951;SDS011;56000;51.146;17.112;2023-04-15T11:45:53;1.60;;;1.00;;
68951;SDS011;56000;51.146;17.112;2023-04-15T11:48:28;0.80;;;0.80;;
68951;SDS011;56000;51.146;17.112;2023-04-15T11:51:03;0.90;;;0.90;;
68951;SDS011;56000;51.146;17.112;2023-04-15T11:53:41;0.80;;;0.80;;
68951;SDS011;56000;51.146;17.112;2023-04-15T11:56:19;1.30;;;1.10;;
68951;SDS011;56000;51.146;17.112;2023-04-15T11:58:54;0.90;;;0.90;;
68951;SDS011;56000;51.146;17.112;2023-04-15T12:01:38;1.00;;;1.00;;
68951;SDS011;56000;51.146;17.112;2023-04-15T12:04:13;1.30;;;1.20;;
68951;SDS011;56000;51.146;17.112;2023-04-15T12:06:53;1.20;;;1.10;;
68951;SDS011;56000;51.146;17.112;2023-04-15T12:09:37;1.30;;;1.20;;
68951;SDS011;56000;51.146;17.112;2023-04-15T12:12:11;0.90;;;0.90;;
68951;SDS011;56000;51.146;17.112;2023-04-15T12:14:44;1.00;;;1.00;;
68951;SDS011;56000;51.146;17.112;2023-04-15T12:17:17;3.20;;;1.20;;
68951;SDS011;56000;51.146;17.112;2023-04-15T12:19:56;1.00;;;1.00;;
68951;SDS011;56000;51.146;17.112;2023-04-15T12:22:29;1.20;;;1.10;;
68951;SDS011;56000;51.146;17.112;2023-04-15T12:25:08;1.20;;;1.10;;
68951;SDS011;56000;51.146;17.112;2023-04-15T12:27:41;0.80;;;0.80;;
68951;SDS011;56000;51.146;17.112;2023-04-15T12:30:23;0.80;;;0.80;;
68951;SDS011;56000;51.146;17.112;2023-04-15T12:32:57;1.00;;;1.00;;
68951;SDS011;56000;51.146;17.112;2023-04-15T12:35:31;1.10;;;1.10;;
68951;SDS011;56000;51.146;17.112;2023-04-15T12:38:04;3.00;;;1.20;;
68951;SDS011;56000;51.146;17.112;2023-04-15T12:40:39;1.80;;;1.10;;
68951;SDS011;56000;51.146;17.112;2023-04-15T12:43:12;2.80;;;1.10;;
68951;SDS011;56000;51.146;17.112;2023-04-15T12:45:46;1.70;;;1.10;;
68951;SDS011;56000;51.146;17.112;2023-04-15T12:48:19;1.30;;;1.20;;
68951;SDS011;56000;51.146;17.112;2023-04-15T12:50:52;1.00;;;1.00;;
68951;SDS011;56000;51.146;17.112;2023-04-15T12:53:25;1.40;;;1.30;;
68951;SDS011;56000;51.146;17.112;2023-04-15T12:55:59;1.10;;;1.10;;
68951;SDS011;56000;51.146;17.112;2023-04-15T12:58:32;1.50;;;1.10;;
68951;SDS011;56000;51.146;17.112;2023-04-15T13:01:05;0.90;;;0.90;;
68951;SDS011;56000;51.146;17.112;2023-04-15T13:03:39;2.30;;;0.90;;
68951;SDS011;56000;51.146;17.112;2023-04-15T13:06:12;1.30;;;0.80;;
68951;SDS011;56000;51.146;17.112;2023-04-15T13:08:45;1.00;;;0.90;;
68951;SDS011;56000;51.146;17.112;2023-04-15T13:11:28;0.90;;;0.90;;
68951;SDS011;56000;51.146;17.112;2023-04-15T13:14:04;3.20;;;0.90;;
68951;SDS011;56000;51.146;17.112;2023-04-15T13:16:40;1.10;;;1.00;;
68951;SDS011;56000;51.146;17.112;2023-04-15T13:19:13;3.70;;;1.80;;
68951;SDS011;56000;51.146;17.112;2023-04-15T13:21:46;1.30;;;1.20;;
68951;SDS011;56000;51.146;17.112;2023-04-15T13:24:19;1.40;;;1.30;;
68951;SDS011;56000;51.146;17.112;2023-04-15T13:26:53;1.50;;;1.20;;
68951;SDS011;56000;51.146;17.112;2023-04-15T13:29:28;1.30;;;1.20;;
68951;SDS011;56000;51.146;17.112;2023-04-15T13:32:01;1.10;;;1.10;;
68951;SDS011;56000;51.146;17.112;2023-04-15T13:34:34;1.30;;;0.90;;
68951;SDS011;56000;51.146;17.112;2023-04-15T13:37:08;0.80;;;0.80;;
68951;SDS011;56000;51.146;17.112;2023-04-15T13:39:41;0.90;;;0.90;;
68951;SDS011;56000;51.146;17.112;2023-04-15T13:42:14;2.90;;;1.50;;
68951;SDS011;56000;51.146;17.112;2023-04-15T13:44:48;1.50;;;1.40;;
68951;SDS011;56000;51.146;17.112;2023-04-15T13:47:21;1.00;;;1.00;;
68951;SDS011;56000;51.146;17.112;2023-04-15T13:49:54;1.40;;;0.80;;
68951;SDS011;56000;51.146;17.112;2023-04-15T13:52:27;2.10;;;0.70;;
68951;SDS011;56000;51.146;17.112;2023-04-15T13:55:01;0.90;;;0.90;;
68951;SDS011;56000;51.146;17.112;2023-04-15T13:57:49;2.30;;;1.00;;
68951;SDS011;56000;51.146;17.112;2023-04-15T14:00:22;12.70;;;9.60;;
68951;SDS011;56000;51.146;17.112;2023-04-15T14:02:55;1.70;;;1.60;;
68951;SDS011;56000;51.146;17.112;2023-04-15T14:05:28;2.80;;;2.50;;
68951;SDS011;56000;51.146;17.112;2023-04-15T14:08:02;1.50;;;1.40;;
68951;SDS011;56000;51.146;17.112;2023-04-15T14:10:35;2.70;;;1.80;;
68951;SDS011;56000;51.146;17.112;2023-04-15T14:13:08;1.00;;;0.90;;
68951;SDS011;56000;51.146;17.112;2023-04-15T14:15:41;1.60;;;1.50;;
68951;SDS011;56000;51.146;17.112;2023-04-15T14:18:14;2.60;;;2.00;;
68951;SDS011;56000;51.146;17.112;2023-04-15T14:20:48;2.20;;;1.80;;
68951;SDS011;56000;51.146;17.112;2023-04-15T14:23:21;1.70;;;1.30;;
68951;SDS011;56000;51.146;17.112;2023-04-15T14:25:54;1.20;;;1.10;;
68951;SDS011;56000;51.146;17.112;2023-04-15T14:28:27;1.60;;;1.10;;
68951;SDS011;56000;51.146;17.112;2023-04-15T14:31:01;0.70;;;0.70;;
68951;SDS011;56000;51.146;17.112;2023-04-15T14:33:34;0.90;;;0.90;;
68951;SDS011;56000;51.146;17.112;2023-04-15T14:36:08;1.00;;;1.00;;
68951;SDS011;56000;51.146;17.112;2023-04-15T14:38:41;1.20;;;1.10;;
68951;SDS011;56000;51.146;17.112;2023-04-15T14:41:17;2.50;;;1.00;;
68951;SDS011;56000;51.146;17.112;2023-04-15T14:43:51;2.70;;;1.10;;
68951;SDS011;56000;51.146;17.112;2023-04-15T14:46:24;1.10;;;1.10;;
68951;SDS011;56000;51.146;17.112;2023-04-15T14:48:57;1.00;;;1.00;;
68951;SDS011;56000;51.146;17.112;2023-04-15T14:51:30;1.60;;;1.50;;
68951;SDS011;56000;51.146;17.112;2023-04-15T14:54:04;3.00;;;2.60;;
68951;SDS011;56000;51.146;17.112;2023-04-15T14:56:37;3.40;;;1.50;;
68951;SDS011;56000;51.146;17.112;2023-04-15T14:59:10;1.30;;;1.10;;
68951;SDS011;56000;51.146;17.112;2023-04-15T15:01:43;1.70;;;1.40;;
68951;SDS011;56000;51.146;17.112;2023-04-15T15:04:17;1.70;;;1.40;;
68951;SDS011;56000;51.146;17.112;2023-04-15T15:06:50;2.70;;;1.20;;
68951;SDS011;56000;51.146;17.112;2023-04-15T15:09:23;2.10;;;1.40;;
68951;SDS011;56000;51.146;17.112;2023-04-15T15:11:56;1.40;;;1.10;;
68951;SDS011;56000;51.146;17.112;2023-04-15T15:14:30;2.10;;;1.30;;
68951;SDS011;56000;51.146;17.112;2023-04-15T15:17:04;1.30;;;1.20;;
68951;SDS011;56000;51.146;17.112;2023-04-15T15:19:37;1.60;;;1.20;;